sensor_id;sensor_type;location;lat;lon;timestamp;pressure;altitude;pressure_sealevel;temperature;humidity
63343;BME280;49465;57.664;39.686;2022-09-09T00:02:24;101175.91;;;8.82;60.38
63343;BME280;49465;57.664;39.686;2022-09-09T00:07:47;101174.22;;;8.81;60.54
63343;BME280;49465;57.664;39.686;2022-09-09T00:10:29;101186.56;;;8.77;60.75
63343;BME280;49465;57.664;39.686;2022-09-09T00:13:13;101185.47;;;8.83;60.40
63343;BME280;49465;57.664;39.686;2022-09-09T00:21:39;101195.56;;;8.70;60.35
63343;BME280;49465;57.664;39.686;2022-09-09T00:24:42;101202.00;;;8.83;59.84
63343;BME280;49465;57.664;39.686;2022-09-09T00:27:44;101209.84;;;8.83;59.45
63343;BME280;49465;57.664;39.686;2022-09-09T00:33:12;101214.50;;;8.77;59.32
63343;BME280;49465;57.664;39.686;2022-09-09T00:35:56;101219.41;;;8.62;60.05
63343;BME280;49465;57.664;39.686;2022-09-09T00:38:40;101211.66;;;8.61;59.86
63343;BME280;49465;57.664;39.686;2022-09-09T00:46:50;101218.09;;;8.52;59.84
63343;BME280;49465;57.664;39.686;2022-09-09T00:55:07;101229.94;;;8.39;60.08
63343;BME280;49465;57.664;39.686;2022-09-09T00:57:41;101221.03;;;8.22;60.12
63343;BME280;49465;57.664;39.686;2022-09-09T01:00:49;101224.91;;;8.56;58.84
63343;BME280;49465;57.664;39.686;2022-09-09T01:16:59;101234.06;;;8.00;60.03
63343;BME280;49465;57.664;39.686;2022-09-09T01:28:02;101240.84;;;7.82;60.07
63343;BME280;49465;57.664;39.686;2022-09-09T01:30:31;101236.03;;;7.71;59.72
63343;BME280;49465;57.664;39.686;2022-09-09T01:32:59;101232.66;;;7.68;59.90
63343;BME280;49465;57.664;39.686;2022-09-09T01:38:18;101239.47;;;7.72;59.60
63343;BME280;49465;57.664;39.686;2022-09-09T01:40:50;101248.22;;;7.71;59.78
63343;BME280;49465;57.664;39.686;2022-09-09T01:43:24;101248.47;;;7.65;59.98
63343;BME280;49465;57.664;39.686;2022-09-09T01:46:01;101247.59;;;7.64;59.92
63343;BME280;49465;57.664;39.686;2022-09-09T01:48:28;101251.72;;;7.46;60.15
63343;BME280;49465;57.664;39.686;2022-09-09T01:50:59;101250.13;;;7.42;60.36
63343;BME280;49465;57.664;39.686;2022-09-09T01:53:34;101254.25;;;7.49;60.09
63343;BME280;49465;57.664;39.686;2022-09-09T02:07:01;101258.06;;;7.16;59.67
63343;BME280;49465;57.664;39.686;2022-09-09T02:09:47;101267.25;;;7.26;59.66
63343;BME280;49465;57.664;39.686;2022-09-09T02:12:46;101266.44;;;7.24;59.62
63343;BME280;49465;57.664;39.686;2022-09-09T02:21:29;101272.03;;;7.13;59.90
63343;BME280;49465;57.664;39.686;2022-09-09T02:24:04;101274.25;;;6.99;59.61
63343;BME280;49465;57.664;39.686;2022-09-09T02:26:44;101279.72;;;6.91;59.97
63343;BME280;49465;57.664;39.686;2022-09-09T02:29:39;101276.03;;;6.98;59.82
63343;BME280;49465;57.664;39.686;2022-09-09T02:32:43;101278.22;;;6.84;60.26
63343;BME280;49465;57.664;39.686;2022-09-09T02:35:28;101286.19;;;6.79;60.19
63343;BME280;49465;57.664;39.686;2022-09-09T02:38:08;101286.81;;;6.61;60.15
63343;BME280;49465;57.664;39.686;2022-09-09T02:41:06;101288.66;;;6.57;60.27
63343;BME280;49465;57.664;39.686;2022-09-09T02:43:55;101290.16;;;6.64;60.04
63343;BME280;49465;57.664;39.686;2022-09-09T02:47:24;101301.00;;;6.79;59.28
63343;BME280;49465;57.664;39.686;2022-09-09T02:57:53;101303.69;;;6.19;60.93
63343;BME280;49465;57.664;39.686;2022-09-09T03:00:49;101306.72;;;6.35;60.81
63343;BME280;49465;57.664;39.686;2022-09-09T03:03:21;101308.69;;;6.27;61.40
63343;BME280;49465;57.664;39.686;2022-09-09T03:06:01;101311.72;;;6.11;61.70
63343;BME280;49465;57.664;39.686;2022-09-09T03:08:32;101320.50;;;6.09;62.00
63343;BME280;49465;57.664;39.686;2022-09-09T03:11:34;101322.81;;;6.20;62.10
63343;BME280;49465;57.664;39.686;2022-09-09T03:14:07;101323.69;;;6.19;62.11
63343;BME280;49465;57.664;39.686;2022-09-09T03:16:37;101323.22;;;6.06;62.45
63343;BME280;49465;57.664;39.686;2022-09-09T03:19:04;101329.31;;;6.05;62.63
63343;BME280;49465;57.664;39.686;2022-09-09T03:21:39;101330.44;;;6.26;62.69
63343;BME280;49465;57.664;39.686;2022-09-09T03:24:14;101327.09;;;6.21;62.30
63343;BME280;49465;57.664;39.686;2022-09-09T03:29:32;101327.59;;;6.04;62.49
63343;BME280;49465;57.664;39.686;2022-09-09T03:32:07;101330.88;;;6.10;63.11
63343;BME280;49465;57.664;39.686;2022-09-09T03:34:50;101338.53;;;6.15;62.22
63343;BME280;49465;57.664;39.686;2022-09-09T03:37:47;101341.97;;;6.17;62.87
63343;BME280;49465;57.664;39.686;2022-09-09T03:40:56;101341.22;;;6.13;63.08
63343;BME280;49465;57.664;39.686;2022-09-09T03:43:31;101348.69;;;6.24;62.26
63343;BME280;49465;57.664;39.686;2022-09-09T03:46:25;101342.91;;;6.14;62.84
63343;BME280;49465;57.664;39.686;2022-09-09T03:49:13;101348.16;;;6.13;62.94
63343;BME280;49465;57.664;39.686;2022-09-09T03:51:56;101348.75;;;6.23;62.30
63343;BME280;49465;57.664;39.686;2022-09-09T03:54:36;101342.09;;;6.12;63.49
63343;BME280;49465;57.664;39.686;2022-09-09T03:57:44;101357.31;;;6.26;62.57
63343;BME280;49465;57.664;39.686;2022-09-09T04:00:42;101359.47;;;6.12;63.22
63343;BME280;49465;57.664;39.686;2022-09-09T04:03:41;101359.84;;;6.29;61.90
63343;BME280;49465;57.664;39.686;2022-09-09T04:06:41;101360.72;;;6.28;62.44
63343;BME280;49465;57.664;39.686;2022-09-09T04:09:08;101359.06;;;5.96;63.43
63343;BME280;49465;57.664;39.686;2022-09-09T04:12:02;101368.69;;;6.24;63.71
63343;BME280;49465;57.664;39.686;2022-09-09T04:14:34;101371.59;;;6.13;63.80
63343;BME280;49465;57.664;39.686;2022-09-09T04:17:35;101376.34;;;6.28;63.30
63343;BME280;49465;57.664;39.686;2022-09-09T04:20:29;101370.97;;;6.34;63.29
63343;BME280;49465;57.664;39.686;2022-09-09T04:23:21;101375.72;;;6.50;62.61
63343;BME280;49465;57.664;39.686;2022-09-09T04:25:53;101377.13;;;6.32;64.34
63343;BME280;49465;57.664;39.686;2022-09-09T04:28:33;101373.38;;;6.41;63.70
63343;BME280;49465;57.664;39.686;2022-09-09T04:31:14;101386.91;;;6.53;63.26
63343;BME280;49465;57.664;39.686;2022-09-09T04:34:06;101384.47;;;6.49;64.06
63343;BME280;49465;57.664;39.686;2022-09-09T04:36:49;101388.53;;;6.58;64.36
63343;BME280;49465;57.664;39.686;2022-09-09T04:39:34;101385.31;;;6.78;63.42
63343;BME280;49465;57.664;39.686;2022-09-09T04:42:21;101390.28;;;6.85;63.48
63343;BME280;49465;57.664;39.686;2022-09-09T04:44:51;101383.63;;;6.77;64.11
63343;BME280;49465;57.664;39.686;2022-09-09T04:47:32;101384.63;;;6.99;63.38
63343;BME280;49465;57.664;39.686;2022-09-09T04:50:11;101380.72;;;7.12;63.97
63343;BME280;49465;57.664;39.686;2022-09-09T04:52:53;101391.66;;;7.24;63.32
63343;BME280;49465;57.664;39.686;2022-09-09T04:55:39;101392.06;;;7.38;63.55
63343;BME280;49465;57.664;39.686;2022-09-09T04:58:25;101397.81;;;7.48;63.79
63343;BME280;49465;57.664;39.686;2022-09-09T05:01:16;101387.59;;;7.67;62.90
63343;BME280;49465;57.664;39.686;2022-09-09T05:06:36;101388.19;;;7.75;63.63
63343;BME280;49465;57.664;39.686;2022-09-09T05:09:23;101390.13;;;7.93;63.10
63343;BME280;49465;57.664;39.686;2022-09-09T05:12:11;101397.63;;;8.03;63.45
63343;BME280;49465;57.664;39.686;2022-09-09T05:15:15;101396.41;;;8.37;62.27
63343;BME280;49465;57.664;39.686;2022-09-09T05:18:12;101394.91;;;8.55;61.92
63343;BME280;49465;57.664;39.686;2022-09-09T05:20:51;101388.38;;;8.43;62.54
63343;BME280;49465;57.664;39.686;2022-09-09T05:23:32;101401.97;;;8.75;62.52
63343;BME280;49465;57.664;39.686;2022-09-09T05:26:17;101405.31;;;8.78;62.09
63343;BME280;49465;57.664;39.686;2022-09-09T05:28:50;101403.84;;;8.93;62.02
63343;BME280;49465;57.664;39.686;2022-09-09T05:31:29;101404.22;;;9.06;62.11
63343;BME280;49465;57.664;39.686;2022-09-09T05:33:59;101399.88;;;9.05;61.73
63343;BME280;49465;57.664;39.686;2022-09-09T05:36:36;101405.50;;;9.38;61.68
63343;BME280;49465;57.664;39.686;2022-09-09T05:39:15;101405.91;;;9.49;61.21
63343;BME280;49465;57.664;39.686;2022-09-09T05:41:56;101410.88;;;9.56;60.49
63343;BME280;49465;57.664;39.686;2022-09-09T05:44:32;101401.28;;;9.77;61.15
63343;BME280;49465;57.664;39.686;2022-09-09T05:47:30;101404.72;;;9.98;60.88
63343;BME280;49465;57.664;39.686;2022-09-09T05:53:03;101408.19;;;10.38;59.82
63343;BME280;49465;57.664;39.686;2022-09-09T05:56:11;101412.31;;;10.62;59.42
63343;BME280;49465;57.664;39.686;2022-09-09T05:58:52;101411.50;;;10.79;59.99
63343;BME280;49465;57.664;39.686;2022-09-09T06:01:49;101401.75;;;11.00;59.24
63343;BME280;49465;57.664;39.686;2022-09-09T06:04:45;101410.13;;;11.26;59.25
63343;BME280;49465;57.664;39.686;2022-09-09T06:07:36;101403.81;;;11.47;59.06
63343;BME280;49465;57.664;39.686;2022-09-09T06:10:27;101415.94;;;11.67;57.94
63343;BME280;49465;57.664;39.686;2022-09-09T06:13:08;101407.13;;;11.86;57.72
63343;BME280;49465;57.664;39.686;2022-09-09T06:15:56;101405.16;;;12.07;57.26
63343;BME280;49465;57.664;39.686;2022-09-09T06:18:22;101410.34;;;12.09;57.28
63343;BME280;49465;57.664;39.686;2022-09-09T06:21:23;101402.84;;;12.50;57.23
63343;BME280;49465;57.664;39.686;2022-09-09T06:23:50;101402.50;;;12.56;56.49
63343;BME280;49465;57.664;39.686;2022-09-09T06:26:27;101405.38;;;12.83;55.71
63343;BME280;49465;57.664;39.686;2022-09-09T06:29:09;101406.72;;;13.06;55.59
63343;BME280;49465;57.664;39.686;2022-09-09T06:31:46;101412.91;;;13.37;55.38
63343;BME280;49465;57.664;39.686;2022-09-09T06:34:38;101406.16;;;13.62;54.76
63343;BME280;49465;57.664;39.686;2022-09-09T06:37:22;101411.09;;;13.82;54.57
63343;BME280;49465;57.664;39.686;2022-09-09T06:39:54;101402.66;;;14.06;53.67
63343;BME280;49465;57.664;39.686;2022-09-09T06:42:54;101407.53;;;14.41;53.12
63343;BME280;49465;57.664;39.686;2022-09-09T06:45:40;101409.88;;;14.60;52.67
63343;BME280;49465;57.664;39.686;2022-09-09T06:48:09;101405.22;;;14.78;51.68
63343;BME280;49465;57.664;39.686;2022-09-09T06:50:39;101403.91;;;14.98;51.74
63343;BME280;49465;57.664;39.686;2022-09-09T06:53:42;101412.56;;;15.27;51.87
63343;BME280;49465;57.664;39.686;2022-09-09T06:56:55;101410.03;;;15.38;50.80
63343;BME280;49465;57.664;39.686;2022-09-09T06:59:26;101408.41;;;15.63;51.11
63343;BME280;49465;57.664;39.686;2022-09-09T07:01:54;101408.94;;;15.68;50.48
63343;BME280;49465;57.664;39.686;2022-09-09T07:04:34;101408.56;;;16.00;50.76
63343;BME280;49465;57.664;39.686;2022-09-09T07:07:08;101413.63;;;16.16;49.93
63343;BME280;49465;57.664;39.686;2022-09-09T07:09:50;101410.94;;;16.29;49.37
63343;BME280;49465;57.664;39.686;2022-09-09T07:12:16;101411.25;;;16.37;48.72
63343;BME280;49465;57.664;39.686;2022-09-09T07:14:48;101419.34;;;16.59;48.89
63343;BME280;49465;57.664;39.686;2022-09-09T07:17:19;101408.81;;;16.71;47.79
63343;BME280;49465;57.664;39.686;2022-09-09T07:19:51;101421.63;;;16.90;47.41
63343;BME280;49465;57.664;39.686;2022-09-09T07:22:18;101411.41;;;16.96;47.01
63343;BME280;49465;57.664;39.686;2022-09-09T07:24:46;101416.75;;;17.08;46.55
63343;BME280;49465;57.664;39.686;2022-09-09T07:27:15;101412.00;;;17.24;45.84
63343;BME280;49465;57.664;39.686;2022-09-09T07:29:48;101413.03;;;17.46;46.83
63343;BME280;49465;57.664;39.686;2022-09-09T07:32:14;101419.78;;;17.50;45.70
63343;BME280;49465;57.664;39.686;2022-09-09T07:34:41;101421.13;;;17.55;45.06
63343;BME280;49465;57.664;39.686;2022-09-09T07:37:13;101421.97;;;17.56;45.10
63343;BME280;49465;57.664;39.686;2022-09-09T07:39:39;101419.78;;;17.50;44.76
63343;BME280;49465;57.664;39.686;2022-09-09T07:42:06;101425.47;;;17.45;44.78
63343;BME280;49465;57.664;39.686;2022-09-09T07:44:33;101424.84;;;17.42;44.98
63343;BME280;49465;57.664;39.686;2022-09-09T07:47:02;101429.91;;;17.45;44.64
63343;BME280;49465;57.664;39.686;2022-09-09T07:49:29;101428.72;;;17.49;44.63
63343;BME280;49465;57.664;39.686;2022-09-09T07:51:58;101421.25;;;17.54;44.82
63343;BME280;49465;57.664;39.686;2022-09-09T07:54:27;101426.38;;;17.68;44.83
63343;BME280;49465;57.664;39.686;2022-09-09T07:56:56;101423.41;;;17.84;44.12
63343;BME280;49465;57.664;39.686;2022-09-09T07:59:28;101433.19;;;17.95;44.14
63343;BME280;49465;57.664;39.686;2022-09-09T08:02:04;101435.84;;;18.17;44.89
63343;BME280;49465;57.664;39.686;2022-09-09T08:04:31;101431.03;;;18.11;43.81
63343;BME280;49465;57.664;39.686;2022-09-09T08:07:02;101438.41;;;18.19;43.11
63343;BME280;49465;57.664;39.686;2022-09-09T08:09:29;101434.03;;;18.18;42.91
63343;BME280;49465;57.664;39.686;2022-09-09T08:12:02;101429.34;;;18.22;43.16
63343;BME280;49465;57.664;39.686;2022-09-09T08:14:28;101428.84;;;18.28;43.04
63343;BME280;49465;57.664;39.686;2022-09-09T08:17:00;101435.84;;;18.40;42.93
63343;BME280;49465;57.664;39.686;2022-09-09T08:19:26;101431.13;;;18.55;42.18
63343;BME280;49465;57.664;39.686;2022-09-09T08:21:59;101426.16;;;18.73;42.30
63343;BME280;49465;57.664;39.686;2022-09-09T08:24:31;101432.41;;;18.94;41.92
63343;BME280;49465;57.664;39.686;2022-09-09T08:27:01;101431.28;;;18.97;41.06
63343;BME280;49465;57.664;39.686;2022-09-09T08:29:35;101441.50;;;19.13;41.90
63343;BME280;49465;57.664;39.686;2022-09-09T08:32:06;101435.22;;;19.14;41.13
63343;BME280;49465;57.664;39.686;2022-09-09T08:34:33;101428.19;;;19.24;41.68
63343;BME280;49465;57.664;39.686;2022-09-09T08:37:13;101438.31;;;19.51;41.95
63343;BME280;49465;57.664;39.686;2022-09-09T08:39:40;101423.25;;;19.62;40.23
63343;BME280;49465;57.664;39.686;2022-09-09T08:45:20;101432.53;;;20.09;41.68
63343;BME280;49465;57.664;39.686;2022-09-09T08:51:09;101436.72;;;19.81;40.39
63343;BME280;49465;57.664;39.686;2022-09-09T08:53:47;101437.31;;;19.85;41.28
63343;BME280;49465;57.664;39.686;2022-09-09T08:56:18;101428.69;;;19.71;38.23
63343;BME280;49465;57.664;39.686;2022-09-09T08:58:52;101429.59;;;19.82;40.17
63343;BME280;49465;57.664;39.686;2022-09-09T09:06:59;101436.28;;;19.76;39.46
63343;BME280;49465;57.664;39.686;2022-09-09T09:12:06;101436.00;;;19.37;38.71
63343;BME280;49465;57.664;39.686;2022-09-09T09:14:47;101435.31;;;19.24;38.48
63343;BME280;49465;57.664;39.686;2022-09-09T09:17:22;101442.06;;;19.28;38.97
63343;BME280;49465;57.664;39.686;2022-09-09T09:19:50;101435.13;;;19.15;38.32
63343;BME280;49465;57.664;39.686;2022-09-09T09:22:26;101439.53;;;19.26;38.93
63343;BME280;49465;57.664;39.686;2022-09-09T09:25:17;101430.03;;;19.45;40.09
63343;BME280;49465;57.664;39.686;2022-09-09T09:30:42;101424.25;;;19.40;39.72
63343;BME280;49465;57.664;39.686;2022-09-09T09:35:44;101424.91;;;19.21;38.71
63343;BME280;49465;57.664;39.686;2022-09-09T09:38:40;101436.31;;;19.44;40.29
63343;BME280;49465;57.664;39.686;2022-09-09T09:41:17;101422.53;;;19.17;39.69
63343;BME280;49465;57.664;39.686;2022-09-09T09:43:55;101426.94;;;19.28;39.10
63343;BME280;49465;57.664;39.686;2022-09-09T09:46:23;101425.44;;;19.47;38.80
63343;BME280;49465;57.664;39.686;2022-09-09T09:49:01;101423.25;;;19.73;39.79
63343;BME280;49465;57.664;39.686;2022-09-09T09:51:30;101418.75;;;19.73;38.33
63343;BME280;49465;57.664;39.686;2022-09-09T09:54:28;101430.84;;;20.08;40.21
63343;BME280;49465;57.664;39.686;2022-09-09T09:57:33;101426.28;;;20.20;40.11
63343;BME280;49465;57.664;39.686;2022-09-09T10:00:14;101428.66;;;19.92;38.46
63343;BME280;49465;57.664;39.686;2022-09-09T10:02:42;101426.13;;;19.91;38.10
63343;BME280;49465;57.664;39.686;2022-09-09T10:05:16;101425.47;;;19.99;38.84
63343;BME280;49465;57.664;39.686;2022-09-09T10:08:08;101425.41;;;19.89;38.33
63343;BME280;49465;57.664;39.686;2022-09-09T10:30:20;101430.75;;;19.89;38.13
63343;BME280;49465;57.664;39.686;2022-09-09T10:33:13;101428.91;;;20.10;38.48
63343;BME280;49465;57.664;39.686;2022-09-09T10:38:47;101423.66;;;20.30;38.31
63343;BME280;49465;57.664;39.686;2022-09-09T10:53:19;101409.94;;;20.85;37.76
63343;BME280;49465;57.664;39.686;2022-09-09T10:56:10;101417.66;;;20.98;37.63
63343;BME280;49465;57.664;39.686;2022-09-09T11:01:24;101418.91;;;21.32;38.91
63343;BME280;49465;57.664;39.686;2022-09-09T11:04:10;101416.81;;;21.07;37.15
63343;BME280;49465;57.664;39.686;2022-09-09T11:06:50;101409.25;;;21.02;36.57
63343;BME280;49465;57.664;39.686;2022-09-09T11:09:38;101420.31;;;20.88;33.41
63343;BME280;49465;57.664;39.686;2022-09-09T11:12:15;101413.97;;;20.79;35.45
63343;BME280;49465;57.664;39.686;2022-09-09T11:15:06;101410.50;;;20.98;37.32
63343;BME280;49465;57.664;39.686;2022-09-09T11:17:52;101417.66;;;20.98;36.94
63343;BME280;49465;57.664;39.686;2022-09-09T11:20:32;101405.41;;;20.76;35.43
63343;BME280;49465;57.664;39.686;2022-09-09T11:23:27;101407.28;;;21.04;37.37
63343;BME280;49465;57.664;39.686;2022-09-09T11:26:03;101401.53;;;20.80;35.18
63343;BME280;49465;57.664;39.686;2022-09-09T11:31:21;101408.50;;;20.61;35.53
63343;BME280;49465;57.664;39.686;2022-09-09T11:37:17;101416.94;;;20.66;36.68
63343;BME280;49465;57.664;39.686;2022-09-09T11:40:08;101416.75;;;20.68;37.17
63343;BME280;49465;57.664;39.686;2022-09-09T11:42:40;101421.56;;;20.33;35.74
63343;BME280;49465;57.664;39.686;2022-09-09T11:45:36;101416.00;;;20.56;37.43
63343;BME280;49465;57.664;39.686;2022-09-09T11:48:04;101418.16;;;20.22;36.09
63343;BME280;49465;57.664;39.686;2022-09-09T11:50:37;101416.06;;;20.25;36.32
63343;BME280;49465;57.664;39.686;2022-09-09T11:53:27;101420.72;;;20.33;36.99
63343;BME280;49465;57.664;39.686;2022-09-09T11:59:19;101418.59;;;20.27;36.39
63343;BME280;49465;57.664;39.686;2022-09-09T12:01:58;101423.03;;;20.17;36.56
63343;BME280;49465;57.664;39.686;2022-09-09T12:09:54;101423.41;;;20.02;36.46
63343;BME280;49465;57.664;39.686;2022-09-09T12:12:34;101432.75;;;19.97;36.75
63343;BME280;49465;57.664;39.686;2022-09-09T12:17:45;101428.03;;;19.79;36.48
63343;BME280;49465;57.664;39.686;2022-09-09T12:20:19;101427.19;;;19.79;36.47
63343;BME280;49465;57.664;39.686;2022-09-09T12:26:12;101431.28;;;19.83;37.55
63343;BME280;49465;57.664;39.686;2022-09-09T12:31:46;101428.53;;;19.31;36.67
63343;BME280;49465;57.664;39.686;2022-09-09T12:34:47;101426.44;;;19.34;37.29
63343;BME280;49465;57.664;39.686;2022-09-09T12:37:34;101418.97;;;19.07;36.68
63343;BME280;49465;57.664;39.686;2022-09-09T12:40:04;101424.75;;;19.01;36.29
63343;BME280;49465;57.664;39.686;2022-09-09T12:42:31;101420.94;;;18.94;36.90
63343;BME280;49465;57.664;39.686;2022-09-09T12:45:03;101425.97;;;18.97;36.88
63343;BME280;49465;57.664;39.686;2022-09-09T12:47:51;101427.88;;;19.06;36.94
63343;BME280;49465;57.664;39.686;2022-09-09T12:50:29;101428.63;;;18.97;37.44
63343;BME280;49465;57.664;39.686;2022-09-09T12:53:12;101427.28;;;19.03;38.14
63343;BME280;49465;57.664;39.686;2022-09-09T12:55:55;101413.50;;;19.09;38.94
63343;BME280;49465;57.664;39.686;2022-09-09T12:58:22;101416.34;;;18.96;38.59
63343;BME280;49465;57.664;39.686;2022-09-09T13:00:55;101412.06;;;19.05;38.06
63343;BME280;49465;57.664;39.686;2022-09-09T13:03:25;101416.88;;;19.11;38.55
63343;BME280;49465;57.664;39.686;2022-09-09T13:06:18;101416.66;;;19.35;39.15
63343;BME280;49465;57.664;39.686;2022-09-09T13:08:46;101413.13;;;19.13;38.46
63343;BME280;49465;57.664;39.686;2022-09-09T13:11:35;101414.13;;;19.33;39.12
63343;BME280;49465;57.664;39.686;2022-09-09T13:14:55;101416.72;;;19.45;39.38
63343;BME280;49465;57.664;39.686;2022-09-09T13:17:27;101417.50;;;19.35;39.34
63343;BME280;49465;57.664;39.686;2022-09-09T13:20:04;101422.69;;;19.58;39.91
63343;BME280;49465;57.664;39.686;2022-09-09T13:22:38;101416.88;;;19.64;39.21
63343;BME280;49465;57.664;39.686;2022-09-09T13:27:40;101418.59;;;19.96;39.05
63343;BME280;49465;57.664;39.686;2022-09-09T13:30:40;101413.66;;;20.22;39.23
63343;BME280;49465;57.664;39.686;2022-09-09T13:33:30;101416.81;;;20.37;39.22
63343;BME280;49465;57.664;39.686;2022-09-09T13:36:04;101418.91;;;20.33;38.59
63343;BME280;49465;57.664;39.686;2022-09-09T13:39:00;101411.66;;;20.45;36.47
63343;BME280;49465;57.664;39.686;2022-09-09T13:41:32;101409.13;;;20.53;38.34
63343;BME280;49465;57.664;39.686;2022-09-09T13:44:01;101410.69;;;20.56;37.78
63343;BME280;49465;57.664;39.686;2022-09-09T13:46:37;101406.53;;;20.73;38.33
63343;BME280;49465;57.664;39.686;2022-09-09T13:51:48;101405.44;;;21.05;38.06
63343;BME280;49465;57.664;39.686;2022-09-09T13:54:21;101404.03;;;21.10;37.98
63343;BME280;49465;57.664;39.686;2022-09-09T13:56:48;101404.75;;;21.12;37.64
63343;BME280;49465;57.664;39.686;2022-09-09T13:59:18;101409.69;;;21.17;37.56
63343;BME280;49465;57.664;39.686;2022-09-09T14:01:51;101408.41;;;21.21;36.65
63343;BME280;49465;57.664;39.686;2022-09-09T14:04:19;101407.84;;;21.08;36.58
63343;BME280;49465;57.664;39.686;2022-09-09T14:06:51;101419.47;;;21.07;36.55
63343;BME280;49465;57.664;39.686;2022-09-09T14:09:26;101409.25;;;20.92;37.15
63343;BME280;49465;57.664;39.686;2022-09-09T14:11:52;101400.53;;;20.81;36.94
63343;BME280;49465;57.664;39.686;2022-09-09T14:14:24;101403.19;;;20.81;37.42
63343;BME280;49465;57.664;39.686;2022-09-09T14:16:52;101401.06;;;20.65;36.25
63343;BME280;49465;57.664;39.686;2022-09-09T14:19:18;101405.22;;;20.58;36.06
63343;BME280;49465;57.664;39.686;2022-09-09T14:21:45;101406.91;;;20.49;36.88
63343;BME280;49465;57.664;39.686;2022-09-09T14:24:11;101403.66;;;20.45;37.30
63343;BME280;49465;57.664;39.686;2022-09-09T14:26:38;101409.94;;;20.44;36.63
63343;BME280;49465;57.664;39.686;2022-09-09T14:29:05;101410.81;;;20.45;36.63
63343;BME280;49465;57.664;39.686;2022-09-09T14:31:36;101406.75;;;20.50;36.83
63343;BME280;49465;57.664;39.686;2022-09-09T14:34:03;101412.19;;;20.39;36.38
63343;BME280;49465;57.664;39.686;2022-09-09T14:36:29;101402.09;;;20.33;35.88
63343;BME280;49465;57.664;39.686;2022-09-09T14:38:56;101403.19;;;20.30;36.05
63343;BME280;49465;57.664;39.686;2022-09-09T14:41:25;101415.94;;;20.27;36.03
63343;BME280;49465;57.664;39.686;2022-09-09T14:43:52;101411.00;;;20.22;36.18
63343;BME280;49465;57.664;39.686;2022-09-09T14:46:20;101415.75;;;20.19;36.17
63343;BME280;49465;57.664;39.686;2022-09-09T14:48:50;101421.38;;;20.15;36.06
63343;BME280;49465;57.664;39.686;2022-09-09T14:51:23;101412.56;;;20.25;36.63
63343;BME280;49465;57.664;39.686;2022-09-09T14:53:57;101415.50;;;20.22;36.52
63343;BME280;49465;57.664;39.686;2022-09-09T14:56:29;101420.94;;;20.20;36.81
63343;BME280;49465;57.664;39.686;2022-09-09T14:59:07;101424.16;;;20.14;36.75
63343;BME280;49465;57.664;39.686;2022-09-09T15:01:39;101418.13;;;20.12;35.81
63343;BME280;49465;57.664;39.686;2022-09-09T15:04:15;101412.88;;;20.01;36.12
63343;BME280;49465;57.664;39.686;2022-09-09T15:06:42;101414.81;;;19.99;36.71
63343;BME280;49465;57.664;39.686;2022-09-09T15:09:17;101431.63;;;19.99;35.43
63343;BME280;49465;57.664;39.686;2022-09-09T15:11:47;101417.00;;;19.84;36.17
63343;BME280;49465;57.664;39.686;2022-09-09T15:14:20;101412.72;;;19.71;36.11
63343;BME280;49465;57.664;39.686;2022-09-09T15:17:10;101426.03;;;19.71;35.55
63343;BME280;49465;57.664;39.686;2022-09-09T15:19:37;101419.31;;;19.56;35.78
63343;BME280;49465;57.664;39.686;2022-09-09T15:22:08;101426.38;;;19.46;36.16
63343;BME280;49465;57.664;39.686;2022-09-09T15:24:35;101426.59;;;19.33;35.58
63343;BME280;49465;57.664;39.686;2022-09-09T15:27:02;101427.47;;;19.22;36.37
63343;BME280;49465;57.664;39.686;2022-09-09T15:29:30;101424.72;;;19.12;36.08
63343;BME280;49465;57.664;39.686;2022-09-09T15:31:57;101433.84;;;18.99;36.27
63343;BME280;49465;57.664;39.686;2022-09-09T15:34:27;101431.34;;;18.86;36.05
63343;BME280;49465;57.664;39.686;2022-09-09T15:37:01;101437.50;;;18.75;36.18
63343;BME280;49465;57.664;39.686;2022-09-09T15:39:30;101443.06;;;18.72;36.88
63343;BME280;49465;57.664;39.686;2022-09-09T15:41:57;101435.00;;;18.51;37.01
63343;BME280;49465;57.664;39.686;2022-09-09T15:44:23;101441.41;;;18.37;36.73
63343;BME280;49465;57.664;39.686;2022-09-09T15:46:52;101438.75;;;18.26;36.47
63343;BME280;49465;57.664;39.686;2022-09-09T15:49:25;101438.25;;;18.21;37.22
63343;BME280;49465;57.664;39.686;2022-09-09T15:52:10;101445.50;;;18.18;37.63
63343;BME280;49465;57.664;39.686;2022-09-09T15:54:40;101448.38;;;17.93;37.41
63343;BME280;49465;57.664;39.686;2022-09-09T15:57:10;101435.53;;;17.75;37.42
63343;BME280;49465;57.664;39.686;2022-09-09T15:59:42;101450.72;;;17.73;37.86
63343;BME280;49465;57.664;39.686;2022-09-09T16:02:18;101450.03;;;17.47;38.34
63343;BME280;49465;57.664;39.686;2022-09-09T16:04:47;101456.28;;;17.46;38.53
63343;BME280;49465;57.664;39.686;2022-09-09T16:07:34;101452.72;;;17.23;38.36
63343;BME280;49465;57.664;39.686;2022-09-09T16:10:02;101459.78;;;17.11;38.75
63343;BME280;49465;57.664;39.686;2022-09-09T16:12:34;101461.56;;;17.11;38.94
63343;BME280;49465;57.664;39.686;2022-09-09T16:15:07;101462.47;;;16.98;39.28
63343;BME280;49465;57.664;39.686;2022-09-09T16:17:33;101461.13;;;16.80;39.39
63343;BME280;49465;57.664;39.686;2022-09-09T16:20:04;101460.09;;;16.70;39.49
63343;BME280;49465;57.664;39.686;2022-09-09T16:22:38;101460.97;;;16.57;39.75
63343;BME280;49465;57.664;39.686;2022-09-09T16:25:06;101463.31;;;16.49;40.20
63343;BME280;49465;57.664;39.686;2022-09-09T16:27:36;101468.50;;;16.38;40.39